sensor_id;sensor_type;location;lat;lon;timestamp;P1;durP1;ratioP1;P2;durP2;ratioP2
27889;SDS011;15238;49.082;9.102;2022-11-15T00:01:06;6.18;;;2.70;;
27889;SDS011;15238;49.082;9.102;2022-11-15T00:03:08;7.40;;;3.63;;
27889;SDS011;15238;49.082;9.102;2022-11-15T00:05:09;5.47;;;3.38;;
27889;SDS011;15238;49.082;9.102;2022-11-15T00:07:09;5.38;;;2.85;;
27889;SDS011;15238;49.082;9.102;2022-11-15T00:09:10;7.07;;;3.55;;
27889;SDS011;15238;49.082;9.102;2022-11-15T00:11:11;4.72;;;2.97;;
27889;SDS011;15238;49.082;9.102;2022-11-15T00:13:12;4.68;;;2.85;;
27889;SDS011;15238;49.082;9.102;2022-11-15T00:15:13;9.05;;;4.47;;
27889;SDS011;15238;49.082;9.102;2022-11-15T00:17:13;9.13;;;3.92;;
27889;SDS011;15238;49.082;9.102;2022-11-15T00:19:14;9.75;;;3.60;;
27889;SDS011;15238;49.082;9.102;2022-11-15T00:21:15;6.53;;;3.80;;
27889;SDS011;15238;49.082;9.102;2022-11-15T00:23:16;8.20;;;3.22;;
27889;SDS011;15238;49.082;9.102;2022-11-15T00:25:16;6.75;;;3.35;;
27889;SDS011;15238;49.082;9.102;2022-11-15T00:27:17;9.45;;;3.25;;
27889;SDS011;15238;49.082;9.102;2022-11-15T00:29:17;4.68;;;2.13;;
27889;SDS011;15238;49.082;9.102;2022-11-15T00:31:18;4.07;;;2.90;;
27889;SDS011;15238;49.082;9.102;2022-11-15T00:33:18;5.45;;;2.97;;
27889;SDS011;15238;49.082;9.102;2022-11-15T00:35:19;4.70;;;3.00;;
27889;SDS011;15238;49.082;9.102;2022-11-15T00:37:20;5.28;;;3.40;;
27889;SDS011;15238;49.082;9.102;2022-11-15T00:39:20;5.55;;;3.17;;
27889;SDS011;15238;49.082;9.102;2022-11-15T00:41:21;5.70;;;3.10;;
27889;SDS011;15238;49.082;9.102;2022-11-15T00:43:22;6.78;;;3.83;;
27889;SDS011;15238;49.082;9.102;2022-11-15T00:45:22;6.25;;;3.20;;
27889;SDS011;15238;49.082;9.102;2022-11-15T00:47:23;4.82;;;2.85;;
27889;SDS011;15238;49.082;9.102;2022-11-15T00:49:23;5.40;;;2.80;;
27889;SDS011;15238;49.082;9.102;2022-11-15T00:51:24;5.25;;;3.58;;
27889;SDS011;15238;49.082;9.102;2022-11-15T00:53:25;4.53;;;2.90;;
27889;SDS011;15238;49.082;9.102;2022-11-15T00:55:25;5.78;;;2.90;;
27889;SDS011;15238;49.082;9.102;2022-11-15T00:57:26;6.40;;;2.60;;
27889;SDS011;15238;49.082;9.102;2022-11-15T00:59:26;7.70;;;2.80;;
27889;SDS011;15238;49.082;9.102;2022-11-15T01:01:27;6.40;;;3.03;;
27889;SDS011;15238;49.082;9.102;2022-11-15T01:03:27;6.20;;;3.17;;
27889;SDS011;15238;49.082;9.102;2022-11-15T01:05:28;5.63;;;2.95;;
27889;SDS011;15238;49.082;9.102;2022-11-15T01:07:28;5.97;;;2.95;;
27889;SDS011;15238;49.082;9.102;2022-11-15T01:09:29;5.32;;;3.20;;
27889;SDS011;15238;49.082;9.102;2022-11-15T01:11:29;7.97;;;3.30;;
27889;SDS011;15238;49.082;9.102;2022-11-15T01:13:33;8.63;;;3.88;;
27889;SDS011;15238;49.082;9.102;2022-11-15T01:15:38;4.55;;;3.35;;
27889;SDS011;15238;49.082;9.102;2022-11-15T01:17:40;6.00;;;3.10;;
27889;SDS011;15238;49.082;9.102;2022-11-15T01:19:40;6.43;;;2.70;;
27889;SDS011;15238;49.082;9.102;2022-11-15T01:21:41;7.13;;;3.25;;
27889;SDS011;15238;49.082;9.102;2022-11-15T01:23:42;6.60;;;3.42;;
27889;SDS011;15238;49.082;9.102;2022-11-15T01:25:42;4.43;;;3.33;;
27889;SDS011;15238;49.082;9.102;2022-11-15T01:27:43;6.97;;;2.90;;
27889;SDS011;15238;49.082;9.102;2022-11-15T01:29:44;5.75;;;3.30;;
27889;SDS011;15238;49.082;9.102;2022-11-15T01:31:44;3.95;;;3.15;;
27889;SDS011;15238;49.082;9.102;2022-11-15T01:33:45;9.95;;;3.97;;
27889;SDS011;15238;49.082;9.102;2022-11-15T01:35:46;5.43;;;3.50;;
27889;SDS011;15238;49.082;9.102;2022-11-15T01:37:47;5.68;;;3.20;;
27889;SDS011;15238;49.082;9.102;2022-11-15T01:39:47;6.80;;;3.45;;
27889;SDS011;15238;49.082;9.102;2022-11-15T01:41:48;4.32;;;3.33;;
27889;SDS011;15238;49.082;9.102;2022-11-15T01:43:50;11.43;;;4.18;;
27889;SDS011;15238;49.082;9.102;2022-11-15T01:45:56;4.85;;;3.50;;
27889;SDS011;15238;49.082;9.102;2022-11-15T01:48:07;6.40;;;3.25;;
27889;SDS011;15238;49.082;9.102;2022-11-15T01:50:12;4.28;;;3.15;;
27889;SDS011;15238;49.082;9.102;2022-11-15T01:52:16;4.43;;;3.22;;
27889;SDS011;15238;49.082;9.102;2022-11-15T01:54:20;6.60;;;3.47;;
27889;SDS011;15238;49.082;9.102;2022-11-15T01:56:24;4.90;;;3.38;;
27889;SDS011;15238;49.082;9.102;2022-11-15T01:58:27;5.97;;;3.38;;
27889;SDS011;15238;49.082;9.102;2022-11-15T02:00:29;7.45;;;3.90;;
27889;SDS011;15238;49.082;9.102;2022-11-15T02:02:31;6.50;;;3.20;;
27889;SDS011;15238;49.082;9.102;2022-11-15T02:04:33;5.35;;;3.60;;
27889;SDS011;15238;49.082;9.102;2022-11-15T02:06:38;6.25;;;3.40;;
27889;SDS011;15238;49.082;9.102;2022-11-15T02:08:39;7.60;;;3.85;;
27889;SDS011;15238;49.082;9.102;2022-11-15T02:10:40;6.10;;;3.83;;
27889;SDS011;15238;49.082;9.102;2022-11-15T02:12:41;6.03;;;3.20;;
27889;SDS011;15238;49.082;9.102;2022-11-15T02:14:42;6.05;;;3.08;;
27889;SDS011;15238;49.082;9.102;2022-11-15T02:19:09;6.63;;;3.33;;
27889;SDS011;15238;49.082;9.102;2022-11-15T02:21:18;8.13;;;3.90;;
27889;SDS011;15238;49.082;9.102;2022-11-15T02:31:29;5.05;;;3.42;;
27889;SDS011;15238;49.082;9.102;2022-11-15T02:33:47;57.50;;;30.02;;
27889;SDS011;15238;49.082;9.102;2022-11-15T02:36:02;28.75;;;14.57;;
27889;SDS011;15238;49.082;9.102;2022-11-15T02:38:10;25.27;;;12.55;;
27889;SDS011;15238;49.082;9.102;2022-11-15T02:40:15;10.68;;;5.95;;
27889;SDS011;15238;49.082;9.102;2022-11-15T02:42:36;14.00;;;5.78;;
27889;SDS011;15238;49.082;9.102;2022-11-15T02:45:05;5.60;;;3.25;;
27889;SDS011;15238;49.082;9.102;2022-11-15T02:47:10;4.72;;;2.88;;
27889;SDS011;15238;49.082;9.102;2022-11-15T02:49:15;9.15;;;3.15;;
27889;SDS011;15238;49.082;9.102;2022-11-15T02:51:16;6.63;;;3.42;;
27889;SDS011;15238;49.082;9.102;2022-11-15T02:53:17;6.57;;;3.22;;
27889;SDS011;15238;49.082;9.102;2022-11-15T02:55:30;7.72;;;3.70;;
27889;SDS011;15238;49.082;9.102;2022-11-15T03:00:03;5.60;;;3.30;;
27889;SDS011;15238;49.082;9.102;2022-11-15T03:04:37;8.88;;;4.00;;
27889;SDS011;15238;49.082;9.102;2022-11-15T03:06:56;4.57;;;3.20;;
27889;SDS011;15238;49.082;9.102;2022-11-15T03:09:05;6.93;;;2.80;;
27889;SDS011;15238;49.082;9.102;2022-11-15T03:11:17;4.90;;;2.67;;
27889;SDS011;15238;49.082;9.102;2022-11-15T03:13:21;4.88;;;2.28;;
27889;SDS011;15238;49.082;9.102;2022-11-15T03:15:28;5.35;;;2.58;;
27889;SDS011;15238;49.082;9.102;2022-11-15T03:17:34;4.07;;;2.38;;
27889;SDS011;15238;49.082;9.102;2022-11-15T03:19:40;3.80;;;2.25;;
27889;SDS011;15238;49.082;9.102;2022-11-15T03:21:45;2.72;;;2.15;;
27889;SDS011;15238;49.082;9.102;2022-11-15T03:23:48;2.83;;;2.20;;
27889;SDS011;15238;49.082;9.102;2022-11-15T03:25:51;3.50;;;2.40;;
27889;SDS011;15238;49.082;9.102;2022-11-15T03:27:55;3.53;;;2.20;;
27889;SDS011;15238;49.082;9.102;2022-11-15T03:29:59;5.20;;;2.42;;
27889;SDS011;15238;49.082;9.102;2022-11-15T03:32:05;6.07;;;2.95;;
27889;SDS011;15238;49.082;9.102;2022-11-15T03:34:22;4.47;;;2.22;;
27889;SDS011;15238;49.082;9.102;2022-11-15T03:36:25;5.40;;;2.35;;
27889;SDS011;15238;49.082;9.102;2022-11-15T03:38:29;4.53;;;2.22;;
27889;SDS011;15238;49.082;9.102;2022-11-15T03:41:15;12.52;;;3.22;;
27889;SDS011;15238;49.082;9.102;2022-11-15T03:43:29;5.03;;;2.42;;
27889;SDS011;15238;49.082;9.102;2022-11-15T03:45:41;6.00;;;2.97;;
27889;SDS011;15238;49.082;9.102;2022-11-15T03:47:51;5.95;;;2.72;;
27889;SDS011;15238;49.082;9.102;2022-11-15T03:49:57;5.25;;;2.58;;
27889;SDS011;15238;49.082;9.102;2022-11-15T03:52:02;9.02;;;3.53;;
27889;SDS011;15238;49.082;9.102;2022-11-15T03:54:05;11.63;;;4.03;;
27889;SDS011;15238;49.082;9.102;2022-11-15T03:56:05;10.10;;;4.18;;
27889;SDS011;15238;49.082;9.102;2022-11-15T03:58:06;7.80;;;3.65;;
27889;SDS011;15238;49.082;9.102;2022-11-15T04:00:07;8.13;;;3.20;;
27889;SDS011;15238;49.082;9.102;2022-11-15T04:02:08;6.65;;;3.28;;
27889;SDS011;15238;49.082;9.102;2022-11-15T04:04:08;11.10;;;3.78;;
27889;SDS011;15238;49.082;9.102;2022-11-15T04:06:09;8.80;;;3.38;;
27889;SDS011;15238;49.082;9.102;2022-11-15T04:08:10;5.25;;;3.00;;
27889;SDS011;15238;49.082;9.102;2022-11-15T04:10:11;7.55;;;2.40;;
27889;SDS011;15238;49.082;9.102;2022-11-15T04:12:12;4.47;;;2.20;;
27889;SDS011;15238;49.082;9.102;2022-11-15T04:14:30;4.43;;;2.30;;
27889;SDS011;15238;49.082;9.102;2022-11-15T04:16:30;3.78;;;2.05;;
27889;SDS011;15238;49.082;9.102;2022-11-15T04:18:31;4.25;;;2.40;;
27889;SDS011;15238;49.082;9.102;2022-11-15T04:20:32;6.30;;;2.17;;
27889;SDS011;15238;49.082;9.102;2022-11-15T04:22:54;4.60;;;2.33;;
27889;SDS011;15238;49.082;9.102;2022-11-15T04:25:15;5.45;;;2.67;;
27889;SDS011;15238;49.082;9.102;2022-11-15T04:27:15;5.75;;;2.95;;
27889;SDS011;15238;49.082;9.102;2022-11-15T04:29:16;12.45;;;3.72;;
27889;SDS011;15238;49.082;9.102;2022-11-15T04:31:34;11.32;;;4.22;;
27889;SDS011;15238;49.082;9.102;2022-11-15T04:33:35;20.67;;;6.47;;
27889;SDS011;15238;49.082;9.102;2022-11-15T04:35:35;19.38;;;7.43;;
27889;SDS011;15238;49.082;9.102;2022-11-15T04:37:36;32.90;;;10.50;;
27889;SDS011;15238;49.082;9.102;2022-11-15T04:39:37;32.45;;;11.75;;
27889;SDS011;15238;49.082;9.102;2022-11-15T04:41:38;27.08;;;10.45;;
27889;SDS011;15238;49.082;9.102;2022-11-15T04:43:38;29.08;;;9.93;;
27889;SDS011;15238;49.082;9.102;2022-11-15T04:45:39;21.50;;;8.00;;
27889;SDS011;15238;49.082;9.102;2022-11-15T04:47:39;16.63;;;6.93;;
27889;SDS011;15238;49.082;9.102;2022-11-15T04:49:42;13.48;;;5.85;;
27889;SDS011;15238;49.082;9.102;2022-11-15T04:51:44;14.25;;;5.03;;
27889;SDS011;15238;49.082;9.102;2022-11-15T04:53:44;11.38;;;4.72;;
27889;SDS011;15238;49.082;9.102;2022-11-15T04:55:45;11.07;;;3.92;;
27889;SDS011;15238;49.082;9.102;2022-11-15T04:57:46;5.72;;;3.17;;
27889;SDS011;15238;49.082;9.102;2022-11-15T04:59:47;5.40;;;2.97;;
27889;SDS011;15238;49.082;9.102;2022-11-15T05:01:47;14.35;;;6.25;;
27889;SDS011;15238;49.082;9.102;2022-11-15T05:03:48;22.80;;;8.10;;
27889;SDS011;15238;49.082;9.102;2022-11-15T05:06:07;48.58;;;15.25;;
27889;SDS011;15238;49.082;9.102;2022-11-15T05:08:07;58.45;;;18.63;;
27889;SDS011;15238;49.082;9.102;2022-11-15T05:10:08;51.58;;;18.63;;
27889;SDS011;15238;49.082;9.102;2022-11-15T05:12:09;25.67;;;9.10;;
27889;SDS011;15238;49.082;9.102;2022-11-15T05:14:09;13.35;;;5.10;;
27889;SDS011;15238;49.082;9.102;2022-11-15T05:16:10;8.00;;;4.10;;
27889;SDS011;15238;49.082;9.102;2022-11-15T05:18:10;6.78;;;3.55;;
27889;SDS011;15238;49.082;9.102;2022-11-15T05:20:11;5.68;;;3.38;;
27889;SDS011;15238;49.082;9.102;2022-11-15T05:22:12;5.93;;;3.45;;
27889;SDS011;15238;49.082;9.102;2022-11-15T05:24:12;9.23;;;4.00;;
27889;SDS011;15238;49.082;9.102;2022-11-15T05:26:13;7.10;;;4.72;;
27889;SDS011;15238;49.082;9.102;2022-11-15T05:28:16;12.30;;;5.18;;
27889;SDS011;15238;49.082;9.102;2022-11-15T05:30:16;10.18;;;5.13;;
27889;SDS011;15238;49.082;9.102;2022-11-15T05:32:26;5.75;;;3.10;;
27889;SDS011;15238;49.082;9.102;2022-11-15T05:34:27;4.90;;;3.10;;
27889;SDS011;15238;49.082;9.102;2022-11-15T05:36:33;3.13;;;2.22;;
27889;SDS011;15238;49.082;9.102;2022-11-15T05:38:37;6.22;;;2.65;;
27889;SDS011;15238;49.082;9.102;2022-11-15T05:40:38;7.55;;;3.40;;
27889;SDS011;15238;49.082;9.102;2022-11-15T05:42:38;6.78;;;2.78;;
27889;SDS011;15238;49.082;9.102;2022-11-15T05:44:40;5.60;;;2.97;;
27889;SDS011;15238;49.082;9.102;2022-11-15T05:46:45;5.25;;;2.78;;
27889;SDS011;15238;49.082;9.102;2022-11-15T05:48:47;6.00;;;2.70;;
27889;SDS011;15238;49.082;9.102;2022-11-15T05:50:50;3.55;;;2.63;;
27889;SDS011;15238;49.082;9.102;2022-11-15T05:52:51;4.28;;;2.65;;
27889;SDS011;15238;49.082;9.102;2022-11-15T05:54:52;6.00;;;2.85;;
27889;SDS011;15238;49.082;9.102;2022-11-15T05:56:52;6.28;;;3.05;;
27889;SDS011;15238;49.082;9.102;2022-11-15T05:58:55;4.60;;;2.72;;
27889;SDS011;15238;49.082;9.102;2022-11-15T06:00:56;4.50;;;2.97;;
27889;SDS011;15238;49.082;9.102;2022-11-15T06:02:57;7.72;;;3.38;;
27889;SDS011;15238;49.082;9.102;2022-11-15T06:04:57;4.07;;;2.58;;
27889;SDS011;15238;49.082;9.102;2022-11-15T06:06:58;7.85;;;3.13;;
27889;SDS011;15238;49.082;9.102;2022-11-15T06:08:59;5.13;;;3.30;;
27889;SDS011;15238;49.082;9.102;2022-11-15T06:11:03;5.47;;;2.88;;
27889;SDS011;15238;49.082;9.102;2022-11-15T06:13:05;5.43;;;3.85;;
27889;SDS011;15238;49.082;9.102;2022-11-15T06:15:06;8.25;;;4.28;;
27889;SDS011;15238;49.082;9.102;2022-11-15T06:17:07;5.35;;;3.20;;
27889;SDS011;15238;49.082;9.102;2022-11-15T06:19:07;5.90;;;3.58;;
27889;SDS011;15238;49.082;9.102;2022-11-15T06:21:08;7.32;;;3.25;;
27889;SDS011;15238;49.082;9.102;2022-11-15T06:23:08;6.50;;;3.85;;
27889;SDS011;15238;49.082;9.102;2022-11-15T06:25:09;9.15;;;3.15;;
27889;SDS011;15238;49.082;9.102;2022-11-15T06:27:10;7.35;;;3.25;;
27889;SDS011;15238;49.082;9.102;2022-11-15T06:29:11;7.28;;;3.30;;
27889;SDS011;15238;49.082;9.102;2022-11-15T06:31:12;7.60;;;3.65;;
27889;SDS011;15238;49.082;9.102;2022-11-15T06:33:12;5.75;;;3.28;;
27889;SDS011;15238;49.082;9.102;2022-11-15T06:35:13;7.65;;;3.08;;
27889;SDS011;15238;49.082;9.102;2022-11-15T06:37:14;5.70;;;3.35;;
27889;SDS011;15238;49.082;9.102;2022-11-15T06:39:14;4.57;;;3.17;;
27889;SDS011;15238;49.082;9.102;2022-11-15T06:41:15;4.90;;;3.00;;
27889;SDS011;15238;49.082;9.102;2022-11-15T06:43:16;5.75;;;2.83;;
27889;SDS011;15238;49.082;9.102;2022-11-15T06:45:17;4.20;;;2.70;;
27889;SDS011;15238;49.082;9.102;2022-11-15T06:47:17;5.15;;;2.95;;
27889;SDS011;15238;49.082;9.102;2022-11-15T06:49:18;6.72;;;3.33;;
27889;SDS011;15238;49.082;9.102;2022-11-15T06:51:18;7.22;;;3.45;;
27889;SDS011;15238;49.082;9.102;2022-11-15T06:53:19;4.93;;;3.20;;
27889;SDS011;15238;49.082;9.102;2022-11-15T06:55:20;5.90;;;3.25;;
27889;SDS011;15238;49.082;9.102;2022-11-15T06:57:20;8.77;;;3.42;;
27889;SDS011;15238;49.082;9.102;2022-11-15T06:59:21;5.03;;;3.10;;
27889;SDS011;15238;49.082;9.102;2022-11-15T07:01:21;4.40;;;3.10;;
27889;SDS011;15238;49.082;9.102;2022-11-15T07:03:22;6.88;;;3.15;;
27889;SDS011;15238;49.082;9.102;2022-11-15T07:05:22;5.28;;;3.45;;
27889;SDS011;15238;49.082;9.102;2022-11-15T07:07:23;6.18;;;3.42;;
27889;SDS011;15238;49.082;9.102;2022-11-15T07:09:23;7.18;;;3.97;;
27889;SDS011;15238;49.082;9.102;2022-11-15T07:11:24;8.05;;;3.75;;
27889;SDS011;15238;49.082;9.102;2022-11-15T07:13:25;5.45;;;3.03;;
27889;SDS011;15238;49.082;9.102;2022-11-15T07:15:26;13.05;;;3.83;;
27889;SDS011;15238;49.082;9.102;2022-11-15T07:17:27;5.38;;;3.28;;
27889;SDS011;15238;49.082;9.102;2022-11-15T07:19:27;5.28;;;3.10;;
27889;SDS011;15238;49.082;9.102;2022-11-15T07:21:28;6.32;;;3.13;;
27889;SDS011;15238;49.082;9.102;2022-11-15T07:23:28;7.70;;;3.78;;
27889;SDS011;15238;49.082;9.102;2022-11-15T07:25:29;9.23;;;3.83;;
27889;SDS011;15238;49.082;9.102;2022-11-15T07:27:30;7.15;;;4.28;;
27889;SDS011;15238;49.082;9.102;2022-11-15T07:29:30;6.63;;;3.42;;
27889;SDS011;15238;49.082;9.102;2022-11-15T07:31:31;4.35;;;3.03;;
27889;SDS011;15238;49.082;9.102;2022-11-15T07:33:32;9.88;;;3.78;;
27889;SDS011;15238;49.082;9.102;2022-11-15T07:35:33;4.90;;;2.95;;
27889;SDS011;15238;49.082;9.102;2022-11-15T07:37:33;5.72;;;3.25;;
27889;SDS011;15238;49.082;9.102;2022-11-15T07:39:34;5.85;;;3.28;;
27889;SDS011;15238;49.082;9.102;2022-11-15T07:41:34;8.23;;;3.42;;
27889;SDS011;15238;49.082;9.102;2022-11-15T07:43:35;8.02;;;3.60;;
27889;SDS011;15238;49.082;9.102;2022-11-15T07:45:40;8.20;;;3.13;;
27889;SDS011;15238;49.082;9.102;2022-11-15T07:47:44;7.47;;;3.28;;
27889;SDS011;15238;49.082;9.102;2022-11-15T07:49:46;8.80;;;2.92;;
27889;SDS011;15238;49.082;9.102;2022-11-15T07:51:46;4.55;;;2.78;;
27889;SDS011;15238;49.082;9.102;2022-11-15T07:53:47;4.45;;;2.88;;
27889;SDS011;15238;49.082;9.102;2022-11-15T07:55:47;4.55;;;2.92;;
27889;SDS011;15238;49.082;9.102;2022-11-15T07:57:48;5.00;;;2.78;;
27889;SDS011;15238;49.082;9.102;2022-11-15T07:59:49;5.25;;;2.70;;
27889;SDS011;15238;49.082;9.102;2022-11-15T08:01:49;5.35;;;3.00;;
27889;SDS011;15238;49.082;9.102;2022-11-15T08:03:50;4.55;;;2.83;;
27889;SDS011;15238;49.082;9.102;2022-11-15T08:05:51;5.75;;;3.10;;
27889;SDS011;15238;49.082;9.102;2022-11-15T08:07:52;5.82;;;3.33;;
27889;SDS011;15238;49.082;9.102;2022-11-15T08:09:55;7.90;;;3.97;;
27889;SDS011;15238;49.082;9.102;2022-11-15T08:11:56;5.30;;;3.03;;
27889;SDS011;15238;49.082;9.102;2022-11-15T08:13:56;10.70;;;3.35;;
27889;SDS011;15238;49.082;9.102;2022-11-15T08:15:59;5.40;;;3.05;;
27889;SDS011;15238;49.082;9.102;2022-11-15T08:18:01;5.05;;;3.10;;
27889;SDS011;15238;49.082;9.102;2022-11-15T08:20:04;5.63;;;2.95;;
27889;SDS011;15238;49.082;9.102;2022-11-15T08:22:05;4.45;;;3.05;;
27889;SDS011;15238;49.082;9.102;2022-11-15T08:24:07;7.90;;;3.33;;
27889;SDS011;15238;49.082;9.102;2022-11-15T08:26:09;4.63;;;3.03;;
27889;SDS011;15238;49.082;9.102;2022-11-15T08:28:10;5.95;;;3.08;;
27889;SDS011;15238;49.082;9.102;2022-11-15T08:30:11;5.45;;;2.88;;
27889;SDS011;15238;49.082;9.102;2022-11-15T08:32:12;6.70;;;3.05;;
27889;SDS011;15238;49.082;9.102;2022-11-15T08:34:12;4.55;;;2.63;;
27889;SDS011;15238;49.082;9.102;2022-11-15T08:36:14;7.97;;;3.15;;
27889;SDS011;15238;49.082;9.102;2022-11-15T08:38:16;4.85;;;2.42;;
27889;SDS011;15238;49.082;9.102;2022-11-15T08:40:16;5.45;;;2.80;;
27889;SDS011;15238;49.082;9.102;2022-11-15T08:42:18;10.27;;;3.20;;
27889;SDS011;15238;49.082;9.102;2022-11-15T08:44:19;6.93;;;3.53;;
27889;SDS011;15238;49.082;9.102;2022-11-15T08:46:19;11.30;;;3.30;;
27889;SDS011;15238;49.082;9.102;2022-11-15T08:48:20;8.93;;;3.17;;
27889;SDS011;15238;49.082;9.102;2022-11-15T08:50:20;8.50;;;3.22;;
27889;SDS011;15238;49.082;9.102;2022-11-15T08:52:21;6.47;;;3.05;;
27889;SDS011;15238;49.082;9.102;2022-11-15T08:54:22;9.32;;;3.30;;
27889;SDS011;15238;49.082;9.102;2022-11-15T08:56:22;6.28;;;3.08;;
27889;SDS011;15238;49.082;9.102;2022-11-15T08:58:23;7.05;;;3.97;;
27889;SDS011;15238;49.082;9.102;2022-11-15T09:00:23;6.65;;;3.17;;
27889;SDS011;15238;49.082;9.102;2022-11-15T09:02:24;6.13;;;3.55;;
27889;SDS011;15238;49.082;9.102;2022-11-15T09:04:24;8.45;;;3.35;;
27889;SDS011;15238;49.082;9.102;2022-11-15T09:06:25;3.92;;;2.72;;
27889;SDS011;15238;49.082;9.102;2022-11-15T09:08:29;6.45;;;2.83;;
27889;SDS011;15238;49.082;9.102;2022-11-15T09:10:30;7.18;;;2.70;;
27889;SDS011;15238;49.082;9.102;2022-11-15T09:12:31;4.20;;;2.50;;
27889;SDS011;15238;49.082;9.102;2022-11-15T09:14:32;5.15;;;2.65;;
27889;SDS011;15238;49.082;9.102;2022-11-15T09:16:32;6.72;;;2.92;;
27889;SDS011;15238;49.082;9.102;2022-11-15T09:18:33;6.07;;;2.80;;
27889;SDS011;15238;49.082;9.102;2022-11-15T09:20:34;8.82;;;2.78;;
27889;SDS011;15238;49.082;9.102;2022-11-15T09:22:35;5.82;;;3.35;;
27889;SDS011;15238;49.082;9.102;2022-11-15T09:24:36;3.97;;;2.60;;
27889;SDS011;15238;49.082;9.102;2022-11-15T09:26:37;5.63;;;2.53;;
27889;SDS011;15238;49.082;9.102;2022-11-15T09:28:37;6.20;;;3.22;;
27889;SDS011;15238;49.082;9.102;2022-11-15T09:30:41;7.40;;;2.90;;
27889;SDS011;15238;49.082;9.102;2022-11-15T09:32:42;10.95;;;2.88;;
27889;SDS011;15238;49.082;9.102;2022-11-15T09:34:42;9.50;;;2.90;;
27889;SDS011;15238;49.082;9.102;2022-11-15T09:36:43;5.55;;;3.30;;
27889;SDS011;15238;49.082;9.102;2022-11-15T09:38:43;5.97;;;3.38;;
27889;SDS011;15238;49.082;9.102;2022-11-15T09:40:44;10.48;;;3.60;;
27889;SDS011;15238;49.082;9.102;2022-11-15T09:45:05;7.20;;;3.33;;
27889;SDS011;15238;49.082;9.102;2022-11-15T09:47:20;7.07;;;3.33;;
27889;SDS011;15238;49.082;9.102;2022-11-15T09:49:52;8.70;;;3.22;;
27889;SDS011;15238;49.082;9.102;2022-11-15T09:51:56;6.40;;;2.90;;
27889;SDS011;15238;49.082;9.102;2022-11-15T09:56:16;6.22;;;2.55;;
27889;SDS011;15238;49.082;9.102;2022-11-15T09:58:33;6.35;;;2.25;;
27889;SDS011;15238;49.082;9.102;2022-11-15T10:00:40;7.65;;;2.63;;
27889;SDS011;15238;49.082;9.102;2022-11-15T10:05:10;4.30;;;2.60;;
27889;SDS011;15238;49.082;9.102;2022-11-15T10:07:17;4.45;;;2.35;;
27889;SDS011;15238;49.082;9.102;2022-11-15T10:09:23;5.68;;;2.50;;
27889;SDS011;15238;49.082;9.102;2022-11-15T10:11:43;5.50;;;2.58;;
27889;SDS011;15238;49.082;9.102;2022-11-15T10:13:45;8.02;;;2.55;;
27889;SDS011;15238;49.082;9.102;2022-11-15T10:15:50;5.78;;;2.75;;
27889;SDS011;15238;49.082;9.102;2022-11-15T10:18:12;5.30;;;3.03;;
27889;SDS011;15238;49.082;9.102;2022-11-15T10:20:20;3.92;;;2.33;;
27889;SDS011;15238;49.082;9.102;2022-11-15T10:22:28;5.55;;;2.47;;
27889;SDS011;15238;49.082;9.102;2022-11-15T10:24:57;4.45;;;2.10;;
27889;SDS011;15238;49.082;9.102;2022-11-15T10:27:10;5.30;;;2.55;;
27889;SDS011;15238;49.082;9.102;2022-11-15T10:29:23;5.90;;;3.03;;
27889;SDS011;15238;49.082;9.102;2022-11-15T10:31:25;5.32;;;2.60;;
27889;SDS011;15238;49.082;9.102;2022-11-15T10:35:35;7.82;;;2.83;;
27889;SDS011;15238;49.082;9.102;2022-11-15T10:37:36;5.80;;;2.83;;
27889;SDS011;15238;49.082;9.102;2022-11-15T10:39:36;5.95;;;2.80;;
27889;SDS011;15238;49.082;9.102;2022-11-15T10:41:38;3.80;;;2.40;;
27889;SDS011;15238;49.082;9.102;2022-11-15T10:43:40;5.22;;;2.60;;
27889;SDS011;15238;49.082;9.102;2022-11-15T10:45:41;9.25;;;3.38;;
27889;SDS011;15238;49.082;9.102;2022-11-15T10:47:42;7.47;;;2.55;;
27889;SDS011;15238;49.082;9.102;2022-11-15T10:49:52;8.45;;;2.30;;
27889;SDS011;15238;49.082;9.102;2022-11-15T10:54:11;5.95;;;2.90;;
27889;SDS011;15238;49.082;9.102;2022-11-15T10:56:13;4.28;;;2.60;;
27889;SDS011;15238;49.082;9.102;2022-11-15T11:00:36;6.00;;;2.80;;
27889;SDS011;15238;49.082;9.102;2022-11-15T11:02:45;6.53;;;2.55;;
27889;SDS011;15238;49.082;9.102;2022-11-15T11:04:56;5.88;;;2.85;;
27889;SDS011;15238;49.082;9.102;2022-11-15T11:06:57;5.70;;;2.80;;
27889;SDS011;15238;49.082;9.102;2022-11-15T11:09:00;5.38;;;2.83;;
27889;SDS011;15238;49.082;9.102;2022-11-15T11:11:05;7.00;;;2.45;;
27889;SDS011;15238;49.082;9.102;2022-11-15T11:13:27;6.25;;;3.50;;
27889;SDS011;15238;49.082;9.102;2022-11-15T11:15:32;8.48;;;2.70;;
27889;SDS011;15238;49.082;9.102;2022-11-15T11:17:41;6.63;;;2.95;;
27889;SDS011;15238;49.082;9.102;2022-11-15T11:31:39;7.90;;;2.55;;
27889;SDS011;15238;49.082;9.102;2022-11-15T11:36:26;5.13;;;3.25;;
27889;SDS011;15238;49.082;9.102;2022-11-15T11:38:44;3.60;;;2.83;;
27889;SDS011;15238;49.082;9.102;2022-11-15T11:47:38;5.07;;;2.92;;
27889;SDS011;15238;49.082;9.102;2022-11-15T11:54:03;6.60;;;2.97;;
27889;SDS011;15238;49.082;9.102;2022-11-15T12:03:28;4.32;;;2.40;;
27889;SDS011;15238;49.082;9.102;2022-11-15T12:05:40;8.38;;;2.83;;
27889;SDS011;15238;49.082;9.102;2022-11-15T12:07:45;8.50;;;3.58;;
27889;SDS011;15238;49.082;9.102;2022-11-15T12:14:24;5.28;;;3.42;;
27889;SDS011;15238;49.082;9.102;2022-11-15T12:16:33;10.85;;;5.45;;
27889;SDS011;15238;49.082;9.102;2022-11-15T12:18:34;5.53;;;3.75;;
27889;SDS011;15238;49.082;9.102;2022-11-15T12:20:36;6.57;;;3.00;;
27889;SDS011;15238;49.082;9.102;2022-11-15T12:22:45;5.50;;;2.50;;
27889;SDS011;15238;49.082;9.102;2022-11-15T12:27:06;4.38;;;2.10;;
27889;SDS011;15238;49.082;9.102;2022-11-15T12:29:37;5.72;;;2.42;;
27889;SDS011;15238;49.082;9.102;2022-11-15T12:31:44;8.23;;;2.58;;
27889;SDS011;15238;49.082;9.102;2022-11-15T12:33:48;6.68;;;2.35;;
27889;SDS011;15238;49.082;9.102;2022-11-15T12:35:57;5.18;;;2.42;;
27889;SDS011;15238;49.082;9.102;2022-11-15T12:37:59;12.07;;;3.25;;
27889;SDS011;15238;49.082;9.102;2022-11-15T12:44:56;7.65;;;3.38;;
27889;SDS011;15238;49.082;9.102;2022-11-15T12:55:32;12.13;;;5.80;;
27889;SDS011;15238;49.082;9.102;2022-11-15T12:57:34;13.80;;;6.00;;
27889;SDS011;15238;49.082;9.102;2022-11-15T12:59:49;9.65;;;5.88;;
27889;SDS011;15238;49.082;9.102;2022-11-15T13:01:53;11.23;;;7.05;;
27889;SDS011;15238;49.082;9.102;2022-11-15T13:06:37;7.18;;;3.30;;
27889;SDS011;15238;49.082;9.102;2022-11-15T13:08:42;9.18;;;3.67;;
27889;SDS011;15238;49.082;9.102;2022-11-15T13:10:47;8.07;;;3.17;;
27889;SDS011;15238;49.082;9.102;2022-11-15T13:12:48;5.30;;;3.25;;
27889;SDS011;15238;49.082;9.102;2022-11-15T13:14:57;6.78;;;3.35;;
27889;SDS011;15238;49.082;9.102;2022-11-15T13:16:58;7.78;;;3.10;;
27889;SDS011;15238;49.082;9.102;2022-11-15T13:18:59;6.57;;;3.28;;
27889;SDS011;15238;49.082;9.102;2022-11-15T13:21:03;8.57;;;3.78;;
27889;SDS011;15238;49.082;9.102;2022-11-15T13:23:27;6.13;;;3.38;;
27889;SDS011;15238;49.082;9.102;2022-11-15T13:27:53;8.98;;;3.42;;
27889;SDS011;15238;49.082;9.102;2022-11-15T13:29:57;6.75;;;3.58;;
27889;SDS011;15238;49.082;9.102;2022-11-15T13:31:57;7.68;;;4.05;;
27889;SDS011;15238;49.082;9.102;2022-11-15T13:34:20;7.65;;;3.85;;
27889;SDS011;15238;49.082;9.102;2022-11-15T13:36:23;7.38;;;4.20;;
27889;SDS011;15238;49.082;9.102;2022-11-15T13:38:31;8.88;;;5.15;;
27889;SDS011;15238;49.082;9.102;2022-11-15T13:40:34;12.02;;;4.78;;
27889;SDS011;15238;49.082;9.102;2022-11-15T13:42:36;8.73;;;5.38;;
27889;SDS011;15238;49.082;9.102;2022-11-15T13:44:37;9.50;;;4.93;;
27889;SDS011;15238;49.082;9.102;2022-11-15T13:46:37;8.13;;;4.53;;
27889;SDS011;15238;49.082;9.102;2022-11-15T13:48:38;9.85;;;4.63;;
27889;SDS011;15238;49.082;9.102;2022-11-15T13:50:40;11.10;;;5.18;;